^^
Meteo Knjazevac Station Historical Data
Daily Summary for January 22, 2021 Units:  English    Metric   Both
Daily Weekly Monthly Yearly Custom
  High: Low: Average:
Temperature: 68.5 °F 64.2 °F 66.1 °F
Dew Point: 66.7 °F 63.4 °F 64.8 °F
Humidity: 98% 93% 96%
Wind Speed: 2mph 0mph 0.5mph
Wind Gust: 3mph - -
Wind- - West
Pressure: 29.98 in 29.97 in -
Precipitation: 0.00 in    
Historical Graphs
 
 
Tabular Data for January 22, 2021
Time Temperature Dew Point Pressure Wind Wind Speed Wind Gust Humidity Rainfall Rate (Hourly) solar Conditions
00:00 68.5 °F 66.7 °F 29.97 in Calm   2 mph 94% 0.00 in 0 W/m2
00:10 68.5 °F 66.4 °F 29.97 in NNW 1 mph 2 mph 93% 0.00 in 0 W/m2
00:20 68 °F 65.9 °F 29.98 in Calm   2 mph 93% 0.00 in 0 W/m2
00:30 67.8 °F 65.7 °F 29.98 in WSW 1 mph 2 mph 93% 0.00 in 0 W/m2
00:40 67.6 °F 65.9 °F 29.98 in Calm   2 mph 94% 0.00 in 0 W/m2
00:50 67.5 °F 65.7 °F 29.98 in Calm     94% 0.00 in 0 W/m2
01:00 67.3 °F 65.5 °F 29.98 in Calm   1 mph 94% 0.00 in 0 W/m2
01:10 67.1 °F 65.3 °F 29.98 in Calm     94% 0.00 in 0 W/m2
01:20 66.9 °F 65.4 °F 29.97 in Calm   2 mph 95% 0.00 in 0 W/m2
01:30 66.4 °F 64.9 °F 29.97 in WSW 1 mph 2 mph 95% 0.00 in 0 W/m2
01:40 66.2 °F 64.7 °F 29.97 in Calm   2 mph 95% 0.00 in 0 W/m2
01:50 65.8 °F 64.4 °F 29.98 in West 1 mph 2 mph 95% 0.00 in 0 W/m2
02:00 65.7 °F 64.2 °F 29.97 in Calm   1 mph 95% 0.00 in 0 W/m2
02:10 65.5 °F 64.3 °F 29.97 in WSW 1 mph 2 mph 96% 0.00 in 0 W/m2
02:20 65.3 °F 64.1 °F 29.97 in Calm   2 mph 96% 0.00 in 0 W/m2
02:30 65.1 °F 64 °F 29.98 in Calm   1 mph 96% 0.00 in 0 W/m2
02:40 65.1 °F 64 °F 29.98 in Calm   2 mph 96% 0.00 in 0 W/m2
02:50 64.9 °F 64.4 °F 29.97 in WSW 2 mph 3 mph 98% 0.00 in 0 W/m2
03:00 64.9 °F 64.4 °F 29.97 in North 1 mph 3 mph 98% 0.00 in 0 W/m2
03:10 64.8 °F 64.2 °F 29.98 in SSW 1 mph 2 mph 98% 0.00 in 0 W/m2
03:20 64.8 °F 64.2 °F 29.98 in Calm   1 mph 98% 0.00 in 0 W/m2
03:30 64.8 °F 64.2 °F 29.98 in Calm   2 mph 98% 0.00 in 0 W/m2
03:40 64.6 °F 63.4 °F 29.98 in SW 2 mph 2 mph 96% 0.00 in 0 W/m2
03:50 64.2 °F 63.6 °F 29.98 in WNW 1 mph 2 mph 98% 0.00 in 0 W/m2
Knjazevac, Serbia
Compliments of Weather Underground - 2 mb